createdAt,value
2022-10-30T00:03:44.816Z,18.2
2022-10-30T00:08:44.832Z,18.2
2022-10-30T00:13:44.842Z,18.2
2022-10-30T00:18:44.824Z,18.1
2022-10-30T00:23:44.817Z,18.1
2022-10-30T00:28:44.849Z,18.1
2022-10-30T00:33:44.881Z,18.1
2022-10-30T00:38:44.822Z,18
2022-10-30T00:43:44.805Z,17.9
2022-10-30T00:48:44.830Z,17.9
2022-10-30T00:53:44.806Z,17.9
2022-10-30T00:58:44.805Z,17.8
2022-10-30T01:03:44.805Z,17.8
2022-10-30T01:08:44.871Z,17.7
2022-10-30T01:13:44.804Z,17.8
2022-10-30T01:18:44.799Z,17.7
2022-10-30T01:23:44.805Z,17.7
2022-10-30T01:28:44.822Z,17.7
2022-10-30T01:33:44.800Z,17.6
2022-10-30T01:38:44.796Z,17.6
2022-10-30T01:43:44.803Z,17.6
2022-10-30T01:48:44.828Z,17.5
2022-10-30T01:53:44.801Z,17.5
2022-10-30T01:58:44.790Z,17.5
2022-10-30T02:03:44.785Z,17.4
2022-10-30T02:08:44.808Z,17.4
2022-10-30T02:13:44.788Z,17.3
2022-10-30T02:23:44.781Z,17.3
2022-10-30T02:28:44.794Z,17.2
2022-10-30T02:33:44.776Z,17.2
2022-10-30T02:38:44.782Z,17.2
2022-10-30T02:43:44.770Z,17.2
2022-10-30T02:48:44.793Z,17.1
2022-10-30T02:53:44.793Z,17.1
2022-10-30T02:58:44.775Z,17.1
2022-10-30T03:03:44.786Z,17.1
2022-10-30T03:08:44.797Z,17.1
2022-10-30T03:13:44.767Z,17
2022-10-30T03:18:44.780Z,17
2022-10-30T03:23:44.776Z,17
2022-10-30T03:28:44.811Z,16.9
2022-10-30T03:33:44.742Z,16.8
2022-10-30T03:38:44.762Z,16.8
2022-10-30T03:43:44.761Z,16.9
2022-10-30T03:48:44.778Z,16.9
2022-10-30T03:53:44.759Z,16.9
2022-10-30T03:58:44.759Z,16.9
2022-10-30T04:03:44.754Z,16.9
2022-10-30T04:08:44.786Z,16.9
2022-10-30T04:13:44.749Z,17
2022-10-30T04:18:44.758Z,17.1
2022-10-30T04:23:44.752Z,17
2022-10-30T04:28:44.777Z,17
2022-10-30T04:33:44.756Z,16.9
2022-10-30T04:38:44.739Z,16.9
2022-10-30T04:43:44.737Z,16.9
2022-10-30T04:48:44.771Z,16.9
2022-10-30T04:53:44.747Z,16.8
2022-10-30T04:58:44.777Z,16.8
2022-10-30T05:03:45.114Z,16.8
2022-10-30T05:08:44.838Z,16.8
2022-10-30T05:13:44.818Z,16.8
2022-10-30T05:18:44.746Z,16.8
2022-10-30T05:23:44.756Z,16.8
2022-10-30T05:28:44.787Z,16.8
2022-10-30T05:33:44.735Z,16.8
2022-10-30T05:38:44.732Z,16.8
2022-10-30T05:43:44.822Z,16.8
2022-10-30T05:48:44.758Z,16.8
2022-10-30T05:53:44.913Z,16.8
2022-10-30T05:58:44.915Z,16.8
2022-10-30T06:03:44.874Z,16.8
2022-10-30T06:08:44.881Z,16.8
2022-10-30T06:13:44.953Z,16.8
2022-10-30T06:18:44.857Z,16.7
2022-10-30T06:23:44.852Z,16.7
2022-10-30T06:28:44.885Z,16.7
2022-10-30T06:33:44.796Z,16.7
2022-10-30T06:38:44.801Z,16.7
2022-10-30T06:43:44.787Z,16.7
2022-10-30T06:48:44.815Z,16.7
2022-10-30T06:53:44.953Z,16.7
2022-10-30T06:58:44.789Z,16.7
2022-10-30T07:03:44.782Z,16.7
2022-10-30T07:08:44.813Z,16.7
2022-10-30T07:13:44.777Z,16.7
2022-10-30T07:18:44.781Z,16.7
2022-10-30T07:23:45.131Z,16.8
2022-10-30T07:28:44.813Z,16.7
2022-10-30T07:33:44.776Z,16.8
2022-10-30T07:38:44.782Z,16.8
2022-10-30T07:43:44.778Z,16.9
2022-10-30T07:48:44.799Z,17
2022-10-30T07:53:44.810Z,17.1
2022-10-30T07:58:45.779Z,17.2
2022-10-30T08:03:44.775Z,17.3
2022-10-30T08:08:44.800Z,17.5
2022-10-30T08:13:44.817Z,17.6
2022-10-30T08:18:44.769Z,17.7
2022-10-30T08:23:44.936Z,17.8
2022-10-30T08:28:44.790Z,17.9
2022-10-30T08:33:44.766Z,17.9
2022-10-30T08:38:44.773Z,18
2022-10-30T08:43:44.769Z,18.1
2022-10-30T08:48:44.785Z,18.1
2022-10-30T08:53:44.761Z,18.3
2022-10-30T08:58:44.863Z,18.4
2022-10-30T09:03:44.754Z,18.5
2022-10-30T09:08:44.796Z,18.5
2022-10-30T09:13:44.763Z,18.6
2022-10-30T09:18:44.757Z,18.7
2022-10-30T09:23:44.787Z,18.7
2022-10-30T09:28:44.772Z,18.9
2022-10-30T09:33:44.763Z,19
2022-10-30T09:38:44.755Z,19.2
2022-10-30T09:43:44.781Z,19.3
2022-10-30T09:48:44.810Z,19.4
2022-10-30T09:53:44.786Z,19.5
2022-10-30T09:58:44.778Z,19.7
2022-10-30T10:03:44.832Z,19.8
2022-10-30T10:08:44.802Z,20
2022-10-30T10:13:44.773Z,20.1
2022-10-30T10:18:44.809Z,20.3
2022-10-30T10:23:44.809Z,20.4
2022-10-30T10:28:44.796Z,20.6
2022-10-30T10:33:44.784Z,20.7
2022-10-30T10:38:44.766Z,20.8
2022-10-30T10:43:44.787Z,20.9
2022-10-30T10:48:44.786Z,21.1
2022-10-30T10:53:44.784Z,21.2
2022-10-30T10:58:44.768Z,21.3
2022-10-30T11:03:44.754Z,21.4
2022-10-30T11:08:44.834Z,21.6
2022-10-30T11:13:44.760Z,21.7
2022-10-30T11:18:44.752Z,21.8
2022-10-30T11:23:44.758Z,21.9
2022-10-30T11:28:44.779Z,22
2022-10-30T11:33:44.756Z,22.2
2022-10-30T11:38:44.753Z,22.3
2022-10-30T11:43:44.754Z,22.5
2022-10-30T11:48:44.771Z,22.6
2022-10-30T11:53:44.755Z,22.8
2022-10-30T11:58:44.741Z,22.9
2022-10-30T12:03:44.962Z,23.1
2022-10-30T12:08:44.772Z,23.2
2022-10-30T12:13:44.739Z,23.4
2022-10-30T12:18:44.739Z,23.5
2022-10-30T12:23:44.811Z,23.6
2022-10-30T12:28:44.765Z,23.7
2022-10-30T12:33:44.736Z,23.8
2022-10-30T12:38:44.727Z,23.9
2022-10-30T12:43:44.792Z,24
2022-10-30T12:48:44.757Z,24.1
2022-10-30T12:53:44.735Z,24.1
2022-10-30T12:58:44.733Z,24.2
2022-10-30T13:03:44.736Z,24.3
2022-10-30T13:08:45.996Z,24.4
2022-10-30T13:13:44.728Z,24.5
2022-10-30T13:18:44.737Z,24.5
2022-10-30T13:23:44.804Z,24.6
2022-10-30T13:28:44.751Z,24.6
2022-10-30T13:33:44.777Z,24.7
2022-10-30T13:38:44.738Z,24.7
2022-10-30T13:43:44.880Z,24.8
2022-10-30T13:48:44.736Z,24.8
2022-10-30T13:53:44.706Z,24.7
2022-10-30T13:58:44.730Z,24.7
2022-10-30T14:03:44.783Z,24.6
2022-10-30T14:08:44.774Z,24.5
2022-10-30T14:13:44.708Z,24.4
2022-10-30T14:18:44.808Z,24.3
2022-10-30T14:23:44.720Z,24.3
2022-10-30T14:28:44.746Z,24.1
2022-10-30T14:33:44.717Z,24.1
2022-10-30T14:38:44.717Z,24
2022-10-30T14:43:44.707Z,23.9
2022-10-30T14:48:44.729Z,23.9
2022-10-30T14:53:44.708Z,23.8
2022-10-30T14:58:44.701Z,23.8
2022-10-30T15:03:44.700Z,23.7
2022-10-30T15:08:44.733Z,23.7
2022-10-30T15:13:44.702Z,23.6
2022-10-30T15:18:44.705Z,23.5
2022-10-30T15:23:44.701Z,23.3
2022-10-30T15:28:44.721Z,23.2
2022-10-30T15:33:44.688Z,23
2022-10-30T15:38:44.694Z,22.8
2022-10-30T15:43:44.685Z,22.7
2022-10-30T15:48:44.710Z,22.6
2022-10-30T15:53:44.684Z,22.4
2022-10-30T15:58:44.687Z,22.1
2022-10-30T16:03:47.358Z,22
2022-10-30T16:08:44.966Z,21.9
2022-10-30T16:13:44.690Z,21.7
2022-10-30T16:18:44.701Z,21.7
2022-10-30T16:23:44.680Z,21.6
2022-10-30T16:28:44.711Z,21.5
2022-10-30T16:33:44.725Z,21.3
2022-10-30T16:38:44.683Z,21.2
2022-10-30T16:43:44.687Z,21.1
2022-10-30T16:48:44.693Z,20.9
2022-10-30T16:53:44.686Z,20.7
2022-10-30T16:58:44.679Z,20.5
2022-10-30T17:03:44.678Z,20.4
2022-10-30T17:08:44.696Z,20.3
2022-10-30T17:13:44.664Z,20.1
2022-10-30T17:18:44.690Z,20
2022-10-30T17:23:44.758Z,19.9
2022-10-30T17:28:44.694Z,19.9
2022-10-30T17:33:44.657Z,19.8
2022-10-30T17:38:44.656Z,19.7
2022-10-30T17:43:44.657Z,19.6
2022-10-30T17:48:44.673Z,19.5
2022-10-30T17:53:44.732Z,19.4
2022-10-30T17:58:44.652Z,19.3
2022-10-30T18:03:44.664Z,19.2
2022-10-30T18:08:46.323Z,19
2022-10-30T18:13:44.666Z,18.9
2022-10-30T18:18:44.667Z,18.9
2022-10-30T18:23:53.031Z,18.8
2022-10-30T18:28:44.681Z,18.7
2022-10-30T18:33:44.643Z,18.6
2022-10-30T18:38:44.644Z,18.5
2022-10-30T18:43:46.558Z,18.4
2022-10-30T18:48:44.712Z,18.4
2022-10-30T18:53:44.642Z,18.3
2022-10-30T18:58:44.648Z,18.2
2022-10-30T19:03:44.635Z,18.1
2022-10-30T19:08:44.669Z,18
2022-10-30T19:13:44.640Z,18
2022-10-30T19:18:44.646Z,17.9
2022-10-30T19:23:44.636Z,17.8
2022-10-30T19:28:44.658Z,17.7
2022-10-30T19:33:44.651Z,17.7
2022-10-30T19:38:44.649Z,17.5
2022-10-30T19:43:44.627Z,17.5
2022-10-30T19:48:56.526Z,17.5
2022-10-30T19:53:44.639Z,17.5
2022-10-30T19:58:44.620Z,17.4
2022-10-30T20:03:44.633Z,17.3
2022-10-30T20:08:44.638Z,17.2
2022-10-30T20:13:45.151Z,17.1
2022-10-30T20:18:44.647Z,17.1
2022-10-30T20:23:44.621Z,17
2022-10-30T20:28:44.676Z,16.9
2022-10-30T20:33:44.611Z,16.9
2022-10-30T20:38:44.627Z,16.9
2022-10-30T20:43:44.609Z,16.8
2022-10-30T20:48:44.686Z,16.7
2022-10-30T20:53:44.621Z,16.6
2022-10-30T20:58:44.618Z,16.5
2022-10-30T21:03:44.621Z,16.5
2022-10-30T21:08:44.624Z,16.5
2022-10-30T21:13:44.721Z,16.4
2022-10-30T21:18:44.656Z,16.3
2022-10-30T21:23:44.612Z,16.3
2022-10-30T21:28:44.635Z,16.2
2022-10-30T21:33:44.606Z,16.1
2022-10-30T21:38:44.733Z,16.1
2022-10-30T21:43:44.665Z,16
2022-10-30T21:48:44.625Z,16
2022-10-30T21:53:44.603Z,16
2022-10-30T21:58:44.607Z,16
2022-10-30T22:03:44.628Z,16.1
2022-10-30T22:08:44.860Z,16.1
2022-10-30T22:13:44.799Z,16.1
2022-10-30T22:18:44.818Z,16.1
2022-10-30T22:23:44.724Z,16
2022-10-30T22:28:44.823Z,15.9
2022-10-30T22:33:44.715Z,15.8
2022-10-30T22:38:44.936Z,15.8
2022-10-30T22:43:44.718Z,15.7
2022-10-30T22:48:44.756Z,15.7
2022-10-30T22:53:44.729Z,15.6
2022-10-30T22:58:44.970Z,15.5
2022-10-30T23:03:44.875Z,15.5
2022-10-30T23:08:44.800Z,15.4
2022-10-30T23:13:44.757Z,15.4
2022-10-30T23:18:44.822Z,15.4
2022-10-30T23:23:44.735Z,15.3
2022-10-30T23:28:44.792Z,15.2
2022-10-30T23:33:44.782Z,15.2
2022-10-30T23:38:44.800Z,15.1
2022-10-30T23:43:44.863Z,15.1
2022-10-30T23:48:44.982Z,15.1
2022-10-30T23:53:44.958Z,15
2022-10-30T23:58:45.130Z,15
